createdAt,value
2022-07-29T00:01:53.276Z,48.07
2022-07-29T00:06:54.586Z,50.07
2022-07-29T00:11:55.847Z,49.13
2022-07-29T00:16:57.155Z,48.88
2022-07-29T00:21:58.424Z,48.99
2022-07-29T00:26:59.750Z,50.19
2022-07-29T00:32:01.466Z,48.86
2022-07-29T00:37:02.828Z,49.22
2022-07-29T00:42:04.078Z,50.16
2022-07-29T00:47:05.605Z,48.96
2022-07-29T00:52:06.912Z,49.01
2022-07-29T00:57:08.720Z,47.44
2022-07-29T01:02:10.041Z,47.26
2022-07-29T01:07:11.332Z,49.20
2022-07-29T01:12:13.919Z,51.67
2022-07-29T01:17:15.239Z,52.98
2022-07-29T01:22:16.555Z,52.99
2022-07-29T01:27:18.203Z,52.85
2022-07-29T01:32:28.482Z,53.35
2022-07-29T01:37:30.315Z,54.67
2022-07-29T01:42:31.667Z,53.47
2022-07-29T01:47:32.959Z,52.93
2022-07-29T01:52:37.016Z,55.01
2022-07-29T01:57:38.271Z,54.06
2022-07-29T02:02:39.530Z,53.56
2022-07-29T02:07:40.842Z,53.97
2022-07-29T02:12:42.120Z,53.87
2022-07-29T02:17:43.864Z,53.66
2022-07-29T02:22:45.250Z,55.00
2022-07-29T02:27:46.520Z,53.54
2022-07-29T02:32:47.780Z,53.16
2022-07-29T02:38:09.696Z,52.12
2022-07-29T02:43:10.975Z,52.54
2022-07-29T02:48:12.235Z,52.89
2022-07-29T02:53:13.486Z,55.30
2022-07-29T02:58:15.111Z,55.26
2022-07-29T03:03:16.352Z,53.37
2022-07-29T03:08:17.930Z,54.80
2022-07-29T03:13:19.319Z,55.78
2022-07-29T03:18:20.719Z,54.18
2022-07-29T03:23:23.616Z,53.51
2022-07-29T03:28:24.944Z,52.07
2022-07-29T03:33:29.909Z,52.12
2022-07-29T03:38:31.169Z,52.41
2022-07-29T03:43:32.506Z,53.95
2022-07-29T03:48:33.790Z,54.52
2022-07-29T03:53:36.390Z,53.46
2022-07-29T03:58:37.631Z,53.55
2022-07-29T04:03:38.994Z,52.93
2022-07-29T04:08:40.254Z,53.72
2022-07-29T04:13:41.570Z,53.48
2022-07-29T04:18:42.814Z,53.55
2022-07-29T04:23:53.172Z,53.47
2022-07-29T04:28:55.338Z,53.56
2022-07-29T04:33:56.644Z,53.62
2022-07-29T04:38:57.964Z,54.22
2022-07-29T04:44:01.771Z,53.59
2022-07-29T04:49:03.403Z,53.15
2022-07-29T04:54:04.741Z,53.93
2022-07-29T04:59:05.995Z,53.21
2022-07-29T05:04:07.237Z,52.87
2022-07-29T05:09:08.520Z,53.08
2022-07-29T05:14:09.825Z,52.63
2022-07-29T05:19:14.411Z,54.50
2022-07-29T05:24:16.367Z,54.77
2022-07-29T05:29:44.774Z,53.44
2022-07-29T05:34:50.219Z,53.17
2022-07-29T05:39:57.150Z,52.65
2022-07-29T05:44:58.750Z,54.13
2022-07-29T05:50:00.038Z,53.79
2022-07-29T05:55:05.177Z,53.03
2022-07-29T06:00:06.438Z,52.89
2022-07-29T06:05:10.619Z,54.64
2022-07-29T06:10:18.443Z,55.23
2022-07-29T06:15:19.824Z,55.38
2022-07-29T06:20:27.106Z,55.66
2022-07-29T06:25:31.731Z,56.12
2022-07-29T06:30:33.062Z,56.87
2022-07-29T06:35:41.782Z,54.44
2022-07-29T06:41:02.694Z,54.79
2022-07-29T06:46:04.121Z,54.55
2022-07-29T06:51:05.514Z,54.44
2022-07-29T06:56:07.174Z,52.89
2022-07-29T07:01:08.533Z,52.96
2022-07-29T07:06:13.257Z,50.96
2022-07-29T07:11:16.335Z,50.88
2022-07-29T07:16:17.630Z,51.64
2022-07-29T07:21:19.642Z,52.08
2022-07-29T07:26:21.177Z,49.47
2022-07-29T07:31:22.495Z,49.26
2022-07-29T07:36:24.099Z,48.32
2022-07-29T07:41:25.607Z,47.15
2022-07-29T07:46:27.011Z,50.19
2022-07-29T07:51:28.546Z,46.71
2022-07-29T07:56:35.048Z,47.47
2022-07-29T08:01:47.907Z,49.08
2022-07-29T08:06:57.126Z,48.19
2022-07-29T08:11:58.697Z,49.08
2022-07-29T08:16:59.969Z,48.69
2022-07-29T08:22:01.336Z,48.73
2022-07-29T08:27:02.591Z,48.54
2022-07-29T08:32:03.912Z,47.53
2022-07-29T08:37:05.231Z,48.28
2022-07-29T08:42:06.491Z,47.80
2022-07-29T08:47:07.788Z,47.67
2022-07-29T08:52:09.039Z,45.99
2022-07-29T08:57:10.293Z,45.58
2022-07-29T09:02:14.370Z,45.74
2022-07-29T09:07:15.646Z,47.06
2022-07-29T09:12:28.728Z,46.82
2022-07-29T09:17:30.914Z,43.71
2022-07-29T09:22:38.808Z,44.28
2022-07-29T09:27:42.857Z,40.55
2022-07-29T09:32:44.148Z,42.91
2022-07-29T09:37:45.648Z,43.07
2022-07-29T09:42:46.970Z,41.14
2022-07-29T09:47:50.201Z,41.86
2022-07-29T09:52:51.618Z,42.06
2022-07-29T09:57:54.668Z,41.51
2022-07-29T10:02:59.129Z,39.00
2022-07-29T10:08:00.401Z,42.20
2022-07-29T10:13:06.353Z,38.81
2022-07-29T10:18:09.179Z,38.14
2022-07-29T10:23:10.447Z,41.30
2022-07-29T10:28:16.030Z,41.72
2022-07-29T10:33:17.980Z,38.69
2022-07-29T10:38:19.311Z,38.83
2022-07-29T10:43:20.602Z,36.94
2022-07-29T10:48:23.607Z,35.69
2022-07-29T10:53:25.843Z,36.73
2022-07-29T10:58:34.959Z,38.62
2022-07-29T11:03:36.962Z,34.26
2022-07-29T11:08:39.298Z,37.22
2022-07-29T11:13:41.426Z,36.84
2022-07-29T11:18:44.014Z,35.95
2022-07-29T11:23:46.112Z,36.57
2022-07-29T11:28:50.122Z,36.83
2022-07-29T11:33:56.280Z,36.61
2022-07-29T11:38:58.262Z,39.67
2022-07-29T11:44:01.667Z,40.62
2022-07-29T11:49:03.069Z,38.64
2022-07-29T11:54:15.728Z,38.65
2022-07-29T11:59:17.767Z,37.99
2022-07-29T12:04:19.041Z,37.94
2022-07-29T12:09:21.311Z,38.26
2022-07-29T12:14:22.646Z,39.37
2022-07-29T12:19:24.511Z,38.83
2022-07-29T12:24:27.422Z,40.79
2022-07-29T12:29:34.529Z,40.33
2022-07-29T12:34:36.980Z,39.75
2022-07-29T12:39:38.293Z,39.13
2022-07-29T12:44:39.535Z,38.50
2022-07-29T12:49:40.996Z,38.69
2022-07-29T12:54:42.239Z,39.11
2022-07-29T12:59:43.572Z,37.98
2022-07-29T13:04:44.872Z,39.41
2022-07-29T13:09:49.520Z,37.06
2022-07-29T13:14:51.429Z,36.27
2022-07-29T13:19:52.754Z,37.05
2022-07-29T13:24:54.060Z,38.89
2022-07-29T13:29:57.411Z,37.16
2022-07-29T13:34:58.679Z,37.01
2022-07-29T13:40:00.304Z,36.21
2022-07-29T13:45:01.645Z,36.36
2022-07-29T13:50:02.973Z,40.59
2022-07-29T13:55:04.282Z,36.97
2022-07-29T14:00:05.676Z,36.66
2022-07-29T14:05:08.675Z,35.87
2022-07-29T14:10:10.541Z,39.03
2022-07-29T14:15:11.815Z,37.16
2022-07-29T14:20:13.103Z,35.39
2022-07-29T14:25:15.552Z,37.58
2022-07-29T14:30:17.080Z,38.21
2022-07-29T14:35:18.517Z,37.06
2022-07-29T14:40:19.824Z,39.40
2022-07-29T14:45:21.082Z,39.80
2022-07-29T14:50:24.519Z,39.44
2022-07-29T14:55:32.918Z,39.13
2022-07-29T15:00:34.483Z,39.04
2022-07-29T15:05:36.086Z,39.96
2022-07-29T15:10:37.433Z,43.59
2022-07-29T15:15:38.727Z,41.51
2022-07-29T15:20:40.043Z,41.47
2022-07-29T15:25:41.339Z,43.71
2022-07-29T15:30:42.616Z,44.56
2022-07-29T15:35:43.925Z,44.48
2022-07-29T15:40:46.571Z,48.00
2022-07-29T15:46:07.065Z,48.02
2022-07-29T15:51:08.459Z,45.95
2022-07-29T15:56:09.811Z,45.10
2022-07-29T16:01:11.737Z,43.60
2022-07-29T16:06:13.061Z,43.78
2022-07-29T16:11:14.315Z,45.50
2022-07-29T16:16:16.810Z,45.88
2022-07-29T16:21:18.158Z,46.76
2022-07-29T16:26:19.713Z,47.22
2022-07-29T16:31:22.991Z,47.54
2022-07-29T16:36:24.362Z,46.29
2022-07-29T16:41:25.621Z,47.23
2022-07-29T16:46:26.999Z,46.22
2022-07-29T16:51:30.111Z,46.23
2022-07-29T16:56:31.389Z,44.98
2022-07-29T17:01:32.726Z,44.08
2022-07-29T17:06:35.124Z,44.68
2022-07-29T17:11:53.393Z,43.73
2022-07-29T17:17:01.420Z,45.01
2022-07-29T17:22:19.512Z,47.13
2022-07-29T17:27:20.988Z,48.78
2022-07-29T17:32:22.258Z,50.47
2022-07-29T17:37:23.511Z,50.59
2022-07-29T17:42:24.834Z,51.75
2022-07-29T17:47:26.098Z,51.96
2022-07-29T17:52:27.467Z,51.70
2022-07-29T17:57:28.743Z,51.74
2022-07-29T18:02:30.203Z,50.91
2022-07-29T18:07:31.700Z,50.93
2022-07-29T18:12:32.975Z,51.94
2022-07-29T18:17:34.472Z,51.06
2022-07-29T18:22:55.505Z,52.36
2022-07-29T18:28:00.319Z,53.39
2022-07-29T18:38:23.173Z,55.16
2022-07-29T18:43:24.440Z,59.86
2022-07-29T18:48:25.748Z,63.95
2022-07-29T18:53:27.047Z,63.23
2022-07-29T18:58:28.466Z,62.32
2022-07-29T19:03:29.797Z,60.74
2022-07-29T19:08:31.066Z,60.42
2022-07-29T19:13:32.365Z,59.37
2022-07-29T19:18:33.616Z,59.18
2022-07-29T19:24:01.390Z,60.11
2022-07-29T19:28:56.186Z,58.52
2022-07-29T19:33:57.431Z,58.27
2022-07-29T19:39:00.099Z,57.82
2022-07-29T19:44:01.431Z,57.74
2022-07-29T19:49:03.389Z,58.87
2022-07-29T19:54:06.250Z,58.21
2022-07-29T19:59:07.575Z,58.51
2022-07-29T20:04:08.834Z,60.12
2022-07-29T20:09:16.830Z,61.60
2022-07-29T20:14:22.051Z,62.33
2022-07-29T20:19:23.405Z,61.52
2022-07-29T20:24:24.726Z,60.29
2022-07-29T20:29:26.053Z,62.30
2022-07-29T20:34:27.322Z,62.48
2022-07-29T20:39:28.604Z,61.19
2022-07-29T20:44:32.067Z,62.86
2022-07-29T20:49:33.325Z,64.22
2022-07-29T20:54:34.595Z,64.92
2022-07-29T20:59:35.891Z,64.40
2022-07-29T21:04:37.162Z,64.21
2022-07-29T21:09:38.451Z,64.44
2022-07-29T21:14:39.733Z,66.60
2022-07-29T21:19:41.378Z,68.82
2022-07-29T21:24:42.822Z,70.50
2022-07-29T21:29:44.111Z,70.76
2022-07-29T21:34:45.424Z,70.37
2022-07-29T21:39:46.748Z,70.33
2022-07-29T21:44:48.113Z,70.32
2022-07-29T21:49:50.135Z,68.50
2022-07-29T21:54:52.333Z,68.36
2022-07-29T21:59:53.579Z,67.70
2022-07-29T22:04:54.826Z,71.16
2022-07-29T22:09:56.096Z,69.16
2022-07-29T22:14:57.364Z,69.61
2022-07-29T22:19:59.019Z,69.86
2022-07-29T22:25:00.478Z,71.13
2022-07-29T22:30:01.752Z,72.35
2022-07-29T22:35:03.144Z,73.40
2022-07-29T22:40:04.426Z,74.00
2022-07-29T22:45:05.755Z,74.14
2022-07-29T22:50:07.058Z,72.59
2022-07-29T22:55:08.522Z,73.59
2022-07-29T23:00:09.790Z,73.58
2022-07-29T23:05:11.175Z,74.82
2022-07-29T23:10:12.483Z,75.01
2022-07-29T23:15:13.759Z,75.78
2022-07-29T23:20:15.080Z,74.49
2022-07-29T23:25:16.376Z,74.70
2022-07-29T23:30:17.685Z,75.03
2022-07-29T23:35:18.998Z,74.89
2022-07-29T23:40:20.491Z,74.82
2022-07-29T23:45:21.869Z,74.42
2022-07-29T23:50:23.146Z,75.07
2022-07-29T23:55:36.742Z,73.76
